Time;durP1;ratioP1;P1;durP2;ratioP2;P2;SDS_P1;SDS_P2;PMS_P1;PMS_P2;Temp;Humidity;BMP_temperature;BMP_pressure;BME280_temperature;BME280_humidity;BME280_pressure;Samples;Min_cycle;Max_cycle;Signal;HPM_P1;HPM_P2
2022/06/29 00:00:02;;;;;;;5.60;2.88;;;;;;;19.08;51.69;101345.31;5025239;28;20045;-73
2022/06/29 00:02:28;;;;;;;5.55;3.00;;;;;;;18.98;51.51;101344.31;5023651;28;20535;-73
2022/06/29 00:04:55;;;;;;;6.53;2.97;;;;;;;18.97;51.74;101346.13;5026820;28;20512;-73
2022/06/29 00:07:22;;;;;;;8.02;4.18;;;;;;;18.72;52.21;101344.53;5025534;28;20048;-72
2022/06/29 00:09:48;;;;;;;6.25;3.28;;;;;;;18.74;51.89;101339.06;5023796;28;20054;-72
2022/06/29 00:12:14;;;;;;;3.72;2.65;;;;;;;18.76;52.75;101343.31;5025176;28;20068;-72
2022/06/29 00:14:42;;;;;;;7.80;2.90;;;;;;;18.67;53.39;101345.81;5024612;28;20045;-72
2022/06/29 00:17:10;;;;;;;4.03;2.53;;;;;;;18.69;53.43;101341.25;5024337;28;20481;-73
2022/06/29 00:19:36;;;;;;;3.22;2.65;;;;;;;18.75;53.48;101336.31;5023098;28;20049;-73
2022/06/29 00:22:03;;;;;;;4.97;2.90;;;;;;;18.80;53.00;101338.63;5025920;28;20045;-73
2022/06/29 00:24:30;;;;;;;6.38;2.90;;;;;;;18.65;53.86;101343.28;5025105;28;20049;-73
2022/06/29 00:26:56;;;;;;;3.50;2.60;;;;;;;18.71;53.01;101334.00;5025159;28;20131;-73
2022/06/29 00:29:23;;;;;;;3.65;2.70;;;;;;;18.60;53.38;101331.31;5024731;28;20099;-73
2022/06/29 00:31:50;;;;;;;5.55;2.75;;;;;;;18.74;52.82;101323.97;5025096;28;20049;-73
2022/06/29 00:34:17;;;;;;;5.90;3.20;;;;;;;18.62;53.40;101330.25;5024619;28;20148;-73
2022/06/29 00:36:43;;;;;;;3.42;2.83;;;;;;;18.60;53.74;101326.84;5025716;28;20127;-72
2022/06/29 00:39:10;;;;;;;4.55;2.88;;;;;;;18.59;54.25;101324.31;5025231;28;20053;-72
2022/06/29 00:41:38;;;;;;;3.90;2.90;;;;;;;18.75;53.12;101325.69;5025714;28;20049;-72
2022/06/29 00:44:07;;;;;;;4.75;2.67;;;;;;;18.87;53.21;101319.44;5026491;28;20052;-72
2022/06/29 00:46:33;;;;;;;3.85;2.75;;;;;;;18.84;53.08;101322.34;5024014;28;20049;-72
2022/06/29 00:49:01;;;;;;;4.32;2.90;;;;;;;19.00;52.33;101314.00;5023537;28;20103;-72
2022/06/29 00:51:34;;;;;;;4.38;3.08;;;;;;;19.01;52.55;101314.84;5024941;28;20053;-72
2022/06/29 00:54:04;;;;;;;5.28;2.60;;;;;;;18.66;54.36;101318.41;5023187;28;20108;-72
2022/06/29 00:56:32;;;;;;;4.82;3.15;;;;;;;18.77;54.08;101307.81;5023895;28;20045;-72
2022/06/29 00:59:03;;;;;;;6.70;3.08;;;;;;;18.69;54.19;101309.38;5021888;28;20041;-72
2022/06/29 01:01:30;;;;;;;6.07;2.60;;;;;;;19.08;53.24;101310.75;5039550;28;20508;-72
2022/06/29 01:03:57;;;;;;;3.88;2.65;;;;;;;19.11;53.26;101311.34;5029182;28;20072;-72
2022/06/29 01:06:24;;;;;;;4.03;2.78;;;;;;;19.19;53.23;101313.41;5024034;28;20045;-72
2022/06/29 01:08:51;;;;;;;5.82;3.03;;;;;;;19.15;53.09;101306.63;5031788;28;20041;-72
2022/06/29 01:11:17;;;;;;;4.82;3.03;;;;;;;19.08;52.85;101308.09;5028067;28;20513;-72
2022/06/29 01:13:45;;;;;;;6.03;3.08;;;;;;;19.12;52.75;101305.06;5024069;28;20049;-72
2022/06/29 01:16:11;;;;;;;4.47;2.97;;;;;;;19.07;53.63;101298.44;5024589;28;20045;-76
2022/06/29 01:18:38;;;;;;;8.70;3.40;;;;;;;18.89;53.87;101301.56;5024301;28;20041;-77
2022/06/29 01:21:04;;;;;;;4.45;3.10;;;;;;;18.68;54.10;101312.97;5023852;28;20045;-77
2022/06/29 01:23:33;;;;;;;5.15;3.30;;;;;;;18.56;54.51;101313.91;5024725;28;20052;-77
2022/06/29 01:26:04;;;;;;;5.93;3.30;;;;;;;18.32;55.23;101312.13;5025249;28;20604;-77
2022/06/29 01:28:30;;;;;;;5.30;3.40;;;;;;;18.15;55.77;101304.56;5023990;28;20045;-77
2022/06/29 01:30:57;;;;;;;4.95;3.33;;;;;;;18.10;56.28;101296.09;5026502;28;20489;-78
2022/06/29 01:33:23;;;;;;;5.47;3.53;;;;;;;18.44;54.67;101300.56;5024853;28;20045;-77
2022/06/29 01:35:50;;;;;;;5.07;2.90;;;;;;;18.47;55.32;101289.75;5021594;28;20041;-77
2022/06/29 01:38:16;;;;;;;6.43;3.60;;;;;;;18.05;57.16;101282.31;5024729;28;20052;-77
2022/06/29 01:40:44;;;;;;;5.40;3.47;;;;;;;18.08;57.00;101284.75;5022645;28;20196;-77
2022/06/29 01:43:10;;;;;;;5.25;3.45;;;;;;;18.12;57.54;101288.00;5032490;28;20514;-77
2022/06/29 01:45:37;;;;;;;6.18;3.65;;;;;;;18.14;57.57;101286.97;5045458;28;20731;-77
2022/06/29 01:48:04;;;;;;;7.40;3.40;;;;;;;18.11;57.52;101284.50;5031910;28;20057;-78
2022/06/29 01:50:31;;;;;;;6.47;3.70;;;;;;;18.15;57.07;101283.31;5023047;28;20045;-67
2022/06/29 01:52:57;;;;;;;5.80;3.53;;;;;;;18.01;57.61;101280.84;5025349;28;20107;-69
2022/06/29 01:55:23;;;;;;;5.28;3.33;;;;;;;18.12;57.31;101286.22;5022754;28;20131;-69
2022/06/29 01:57:51;;;;;;;10.82;3.75;;;;;;;18.12;57.46;101286.22;5023030;28;20072;-68
2022/06/29 02:00:18;;;;;;;3.67;3.03;;;;;;;17.94;58.44;101280.47;5025446;28;20049;-68
2022/06/29 02:02:44;;;;;;;4.22;3.42;;;;;;;18.03;57.75;101286.91;5024299;28;20104;-67
2022/06/29 02:05:12;;;;;;;4.20;3.38;;;;;;;17.74;59.33;101282.88;5026713;28;20128;-67
2022/06/29 02:07:38;;;;;;;5.60;3.38;;;;;;;17.48;60.09;101290.88;5027759;28;20046;-68
2022/06/29 02:10:06;;;;;;;3.70;3.30;;;;;;;17.51;59.81;101287.19;5027587;28;20119;-68
2022/06/29 02:12:32;;;;;;;4.00;3.30;;;;;;;17.71;59.51;101278.66;5027690;28;20099;-69
2022/06/29 02:15:00;;;;;;;9.50;3.65;;;;;;;17.68;60.22;101273.56;5029054;28;20150;-68
2022/06/29 02:17:26;;;;;;;3.30;2.90;;;;;;;17.84;59.54;101273.31;5027558;28;20456;-68
2022/06/29 02:19:52;;;;;;;4.88;3.38;;;;;;;17.89;60.31;101276.44;5025970;28;20069;-68
2022/06/29 02:22:19;;;;;;;3.92;3.10;;;;;;;17.95;60.14;101271.56;5028740;28;20068;-69
2022/06/29 02:24:45;;;;;;;6.05;3.30;;;;;;;18.00;60.60;101272.03;5027286;28;20069;-68
2022/06/29 02:27:11;;;;;;;4.18;3.78;;;;;;;17.89;61.79;101276.44;5031644;28;20409;-68
2022/06/29 02:29:38;;;;;;;4.68;3.35;;;;;;;17.88;61.70;101272.97;5028077;28;20056;-68
2022/06/29 02:34:50;;;;;;;3.97;3.38;;;;;;;17.78;61.43;101255.16;5025838;28;20127;-68
2022/06/29 02:37:17;;;;;;;4.88;3.60;;;;;;;17.86;61.10;101251.00;5026285;28;20099;-68
2022/06/29 02:39:44;;;;;;;8.30;3.72;;;;;;;17.74;61.89;101251.88;5027317;28;20448;-68
2022/06/29 02:42:11;;;;;;;5.82;3.42;;;;;;;17.87;61.25;101251.84;5026577;28;20063;-68
2022/06/29 02:44:37;;;;;;;6.32;3.78;;;;;;;17.92;61.77;101266.44;5027251;28;20434;-68
2022/06/29 02:47:06;;;;;;;5.63;3.72;;;;;;;17.83;62.77;101263.66;5028605;28;20049;-68
2022/06/29 02:49:32;;;;;;;5.35;3.88;;;;;;;17.89;62.40;101273.78;5026597;28;20103;-68
2022/06/29 02:51:59;;;;;;;4.97;3.75;;;;;;;17.86;62.57;101261.59;5027798;28;20092;-68
2022/06/29 02:54:25;;;;;;;4.88;3.88;;;;;;;17.83;62.83;101263.66;5027767;28;20045;-68
2022/06/29 02:56:52;;;;;;;5.68;3.88;;;;;;;17.81;62.78;101258.44;5024911;28;20100;-68
2022/06/29 02:59:19;;;;;;;5.32;3.60;;;;;;;17.75;62.63;101264.19;5026978;28;20045;-68
2022/06/29 03:01:45;;;;;;;8.13;3.90;;;;;;;17.71;63.29;101267.19;5027724;28;20049;-68
2022/06/29 03:04:13;;;;;;;4.70;3.90;;;;;;;17.83;63.44;101271.59;5024959;28;20045;-68
2022/06/29 03:06:40;;;;;;;5.50;3.90;;;;;;;18.10;62.64;101272.22;5027166;28;20414;-68
2022/06/29 03:09:06;;;;;;;5.43;3.92;;;;;;;17.97;63.58;101274.94;5026211;28;20459;-69
2022/06/29 03:11:33;;;;;;;4.97;3.50;;;;;;;17.87;63.78;101283.69;5025337;28;20053;-69
2022/06/29 03:13:59;;;;;;;4.95;3.65;;;;;;;17.91;63.85;101275.41;5013735;28;20050;-68
2022/06/29 03:16:26;;;;;;;4.78;3.60;;;;;;;17.95;63.55;101274.22;5026218;28;20049;-68
2022/06/29 03:18:52;;;;;;;4.18;3.78;;;;;;;18.31;62.74;101289.19;5025307;28;20050;-68
2022/06/29 03:21:20;;;;;;;6.50;3.78;;;;;;;18.37;62.34;101282.56;5025655;28;20124;-68
2022/06/29 03:23:46;;;;;;;6.70;4.05;;;;;;;18.31;62.80;101286.53;5026174;28;20127;-68
2022/06/29 03:26:13;;;;;;;9.90;3.78;;;;;;;18.22;63.54;101289.00;5025076;28;20688;-68
2022/06/29 03:28:39;;;;;;;13.32;3.67;;;;;;;18.41;63.44;101286.69;5025310;28;20046;-69
2022/06/29 03:31:06;;;;;;;5.25;3.80;;;;;;;18.34;63.82;101278.34;5027882;28;20041;-68
2022/06/29 03:33:32;;;;;;;7.32;3.58;;;;;;;18.29;63.99;101291.09;5025291;28;20045;-69
2022/06/29 03:35:59;;;;;;;5.20;3.80;;;;;;;18.19;63.98;101282.13;5025448;28;20046;-68
2022/06/29 03:38:26;;;;;;;4.95;3.53;;;;;;;18.19;64.90;101283.94;5026882;28;20062;-68
2022/06/29 03:40:53;;;;;;;4.10;3.63;;;;;;;18.22;64.63;101287.22;5025762;28;20053;-68
2022/06/29 03:43:19;;;;;;;5.60;3.38;;;;;;;18.54;64.06;101292.81;5025349;28;21373;-68
2022/06/29 03:45:46;;;;;;;5.03;3.85;;;;;;;18.61;63.45;101288.72;5027641;28;20045;-68
2022/06/29 03:48:14;;;;;;;5.00;3.65;;;;;;;18.57;63.50;101278.44;5025830;28;20057;-68
2022/06/29 03:50:40;;;;;;;5.60;3.88;;;;;;;18.36;64.34;101291.50;5027720;28;20057;-69
2022/06/29 03:53:07;;;;;;;4.88;3.63;;;;;;;18.24;64.92;101293.28;5027375;28;20041;-69
2022/06/29 03:55:35;;;;;;;4.00;3.40;;;;;;;18.46;64.18;101281.88;5023529;28;20041;-69
2022/06/29 03:58:01;;;;;;;4.35;3.40;;;;;;;18.69;63.68;101283.66;5025698;28;20099;-68
2022/06/29 04:00:27;;;;;;;6.55;3.72;;;;;;;18.70;64.33;101289.81;5026237;28;20115;-68
2022/06/29 04:02:54;;;;;;;3.95;3.53;;;;;;;18.96;63.38;101286.81;5031880;28;20049;-68
2022/06/29 04:05:20;;;;;;;4.40;3.42;;;;;;;19.19;62.56;101286.81;5041869;28;20041;-68
2022/06/29 04:07:46;;;;;;;5.03;3.40;;;;;;;19.15;63.26;101290.69;5018147;28;20057;-68
2022/06/29 04:10:13;;;;;;;4.43;3.70;;;;;;;19.13;63.62;101284.66;5032356;28;20049;-68
2022/06/29 04:12:40;;;;;;;4.45;3.20;;;;;;;19.22;63.09;101290.09;5026067;28;20057;-68
2022/06/29 04:15:08;;;;;;;5.68;3.20;;;;;;;19.39;63.11;101286.97;5026249;28;20103;-68
2022/06/29 04:17:35;;;;;;;4.63;3.60;;;;;;;19.40;62.71;101285.97;5025254;28;20045;-69
2022/06/29 04:20:02;;;;;;;5.93;3.30;;;;;;;19.44;63.11;101295.41;5026376;28;20099;-68
2022/06/29 04:22:28;;;;;;;5.28;3.33;;;;;;;19.54;63.29;101294.69;5025836;28;20041;-68
2022/06/29 04:24:54;;;;;;;6.25;3.55;;;;;;;19.58;63.42;101294.34;5023810;28;20049;-68
2022/06/29 04:27:21;;;;;;;5.13;3.20;;;;;;;19.14;64.89;101295.16;5026183;28;20489;-68
2022/06/29 04:29:49;;;;;;;4.57;3.58;;;;;;;19.61;63.81;101295.91;5024707;28;20047;-68
2022/06/29 04:32:15;;;;;;;7.97;3.60;;;;;;;19.34;64.88;101301.56;5024942;28;20050;-69
2022/06/29 04:34:42;;;;;;;4.82;3.15;;;;;;;19.51;64.52;101306.41;5024103;28;20450;-69
2022/06/29 04:37:08;;;;;;;5.05;3.20;;;;;;;19.79;63.19;101291.75;5023334;28;20049;-68
2022/06/29 04:39:35;;;;;;;4.15;3.30;;;;;;;19.54;64.57;101295.56;5021819;28;20073;-68
2022/06/29 04:42:01;;;;;;;5.85;3.53;;;;;;;19.49;64.71;101295.06;5025433;28;20099;-68
2022/06/29 04:44:28;;;;;;;4.93;3.30;;;;;;;19.41;65.53;101300.13;5035383;28;20076;-69
2022/06/29 04:46:55;;;;;;;8.30;3.70;;;;;;;19.48;65.70;101297.84;5033103;28;20111;-67
2022/06/29 04:49:22;;;;;;;4.25;3.22;;;;;;;19.74;64.91;101300.09;5032747;28;20049;-67
2022/06/29 04:51:49;;;;;;;4.88;3.60;;;;;;;20.12;63.75;101296.97;5031081;28;20041;-67
2022/06/29 04:54:15;;;;;;;4.13;3.28;;;;;;;20.01;63.91;101281.03;5023415;28;20057;-67
2022/06/29 04:56:42;;;;;;;3.88;3.10;;;;;;;20.24;63.79;101292.44;5024256;28;20049;-67
2022/06/29 04:59:08;;;;;;;6.97;3.47;;;;;;;20.29;63.66;101288.44;5027025;28;20351;-68
2022/06/29 05:01:34;;;;;;;3.22;2.80;;;;;;;20.24;63.50;101290.63;5036117;28;20565;-68
2022/06/29 05:04:02;;;;;;;5.25;3.05;;;;;;;20.52;63.01;101283.84;5031642;28;20662;-68
2022/06/29 05:06:28;;;;;;;4.03;3.35;;;;;;;20.51;63.21;101282.16;5025364;28;20492;-68
2022/06/29 05:08:56;;;;;;;5.82;3.08;;;;;;;20.96;62.04;101289.84;5032741;28;20071;-68
2022/06/29 05:11:23;;;;;;;4.53;3.20;;;;;;;20.72;62.39;101291.00;5023149;28;20166;-68
2022/06/29 05:13:50;;;;;;;7.70;3.50;;;;;;;20.54;63.48;101281.06;5025541;28;20604;-68
2022/06/29 05:16:17;;;;;;;6.35;3.20;;;;;;;21.19;62.99;101280.75;5023933;28;20648;-67
2022/06/29 05:18:44;;;;;;;16.17;4.78;;;;;;;21.55;61.12;101276.63;5027774;28;20044;-67
2022/06/29 05:21:12;;;;;;;11.90;3.33;;;;;;;21.34;61.16;101274.06;5040724;28;20099;-67
2022/06/29 05:23:39;;;;;;;11.32;3.80;;;;;;;21.63;60.51;101274.13;5021939;28;20045;-67
2022/06/29 05:26:05;;;;;;;7.05;3.42;;;;;;;21.81;59.74;101264.47;5031747;28;20049;-67
2022/06/29 05:28:33;;;;;;;7.03;3.50;;;;;;;21.98;59.55;101265.66;5036698;28;20505;-67
2022/06/29 05:30:59;;;;;;;4.82;3.50;;;;;;;21.93;60.12;101259.88;5037381;28;20489;-67
2022/06/29 05:33:25;;;;;;;7.07;3.78;;;;;;;21.66;61.13;101272.03;5044516;28;20067;-66
2022/06/29 05:35:52;;;;;;;4.07;3.05;;;;;;;21.82;60.76;101275.03;5030587;28;20099;-67
2022/06/29 05:38:19;;;;;;;4.88;3.30;;;;;;;;;;5037490;28;20423;-66
2022/06/29 05:40:45;;;;;;;6.25;3.30;;;;;;;22.40;58.80;101284.88;5024609;28;20049;-66
2022/06/29 05:43:12;;;;;;;6.03;3.08;;;;;;;22.39;59.22;101272.53;5024850;28;20045;-66
2022/06/29 05:45:38;;;;;;;4.72;3.55;;;;;;;22.76;57.67;101265.47;5025047;28;20053;-66
2022/06/29 05:48:05;;;;;;;5.03;3.13;;;;;;;22.32;59.85;101253.53;5024916;28;20069;-68
2022/06/29 05:50:31;;;;;;;5.57;3.40;;;;;;;22.14;60.03;101263.25;5040761;28;20823;-69
2022/06/29 05:52:58;;;;;;;4.97;3.42;;;;;;;22.01;60.40;101260.88;5026659;28;20064;-69
2022/06/29 05:55:26;;;;;;;6.25;3.40;;;;;;;22.26;59.90;101264.81;5021926;28;20046;-68
2022/06/29 05:57:52;;;;;;;4.65;3.38;;;;;;;22.51;59.46;101269.53;5027691;28;20042;-68
2022/06/29 06:00:19;;;;;;;6.18;3.67;;;;;;;22.17;60.41;101277.16;5025167;28;20439;-68
2022/06/29 06:02:46;;;;;;;4.72;3.45;;;;;;;22.25;60.52;101281.81;5023077;28;20425;-70
2022/06/29 06:05:12;;;;;;;3.70;3.20;;;;;;;22.33;60.58;101272.09;5023345;28;20123;-69
2022/06/29 06:07:38;;;;;;;4.75;3.58;;;;;;;22.53;60.40;101267.59;5024435;28;20046;-69
2022/06/29 06:10:05;;;;;;;5.43;3.78;;;;;;;22.72;60.02;101269.41;5027048;28;20045;-69
2022/06/29 06:12:33;;;;;;;6.10;3.70;;;;;;;22.44;60.62;101281.78;5023592;28;20461;-69
2022/06/29 06:15:01;;;;;;;5.60;3.80;;;;;;;22.71;60.04;101265.91;5023874;28;20072;-69
2022/06/29 06:17:28;;;;;;;5.63;3.58;;;;;;;23.11;59.17;101267.44;5023090;28;20685;-69
2022/06/29 06:19:55;;;;;;;6.50;3.67;;;;;;;22.89;59.65;101257.94;5024436;28;20057;-68
2022/06/29 06:22:21;;;;;;;6.28;4.03;;;;;;;23.26;59.14;101257.94;5037757;28;20092;-68
2022/06/29 06:24:48;;;;;;;10.15;3.65;;;;;;;23.58;58.00;101262.84;5022712;28;20420;-68
2022/06/29 06:27:14;;;;;;;7.78;3.90;;;;;;;23.93;56.94;101257.56;5021904;28;20515;-69
2022/06/29 06:29:42;;;;;;;6.47;3.55;;;;;;;24.01;56.38;101254.09;5032614;28;20049;-69
2022/06/29 06:32:09;;;;;;;10.45;4.47;;;;;;;23.51;58.52;101259.09;5031769;28;20053;-69
2022/06/29 06:34:35;;;;;;;8.60;4.38;;;;;;;23.56;58.26;101248.78;5031769;28;20049;-69
2022/06/29 06:37:02;;;;;;;12.18;4.65;;;;;;;23.61;58.93;101249.19;5040257;28;20104;-69
2022/06/29 06:39:28;;;;;;;7.50;4.40;;;;;;;23.21;60.02;101252.19;5021892;28;20100;-69
2022/06/29 06:41:54;;;;;;;9.25;4.10;;;;;;;22.98;60.36;101257.09;5023449;28;20045;-69
2022/06/29 06:44:20;;;;;;;5.45;3.70;;;;;;;23.37;59.96;101251.53;5024755;28;20560;-69
2022/06/29 06:46:48;;;;;;;5.35;3.75;;;;;;;23.30;60.38;101259.31;5028746;28;20095;-69
2022/06/29 06:49:15;;;;;;;8.07;4.20;;;;;;;23.66;59.04;101262.94;5040067;28;20083;-69
2022/06/29 06:51:41;;;;;;;9.90;3.70;;;;;;;23.79;58.75;101255.41;5029421;28;20050;-69
2022/06/29 06:54:08;;;;;;;38.45;4.47;;;;;;;24.20;57.38;101251.31;5030312;28;20045;-69
2022/06/29 06:56:34;;;;;;;10.02;4.03;;;;;;;24.11;57.14;101253.03;5027426;28;20494;-67
2022/06/29 06:59:00;;;;;;;5.15;3.67;;;;;;;23.73;57.85;101256.00;5026243;28;20092;-68
2022/06/29 07:01:26;;;;;;;6.93;3.58;;;;;;;23.68;58.38;101259.16;5027008;28;20076;-67
2022/06/29 07:03:55;;;;;;;7.53;3.78;;;;;;;23.60;57.24;101255.53;5027460;28;20042;-67
2022/06/29 07:06:21;;;;;;;6.97;3.80;;;;;;;23.34;58.56;101254.53;5040386;28;20045;-67
2022/06/29 07:08:49;;;;;;;5.93;3.60;;;;;;;23.40;58.82;101264.63;5033333;28;20497;-68
2022/06/29 07:11:15;;;;;;;8.27;3.58;;;;;;;23.47;58.07;101263.06;5026180;28;20539;-67
2022/06/29 07:13:42;;;;;;;14.18;3.70;;;;;;;23.77;56.93;101252.03;5027698;28;20452;-68
2022/06/29 07:16:08;;;;;;;8.70;3.67;;;;;;;24.00;56.33;101253.25;5035370;28;20123;-68
2022/06/29 07:18:35;;;;;;;6.45;3.50;;;;;;;24.10;56.45;101262.06;5026904;28;20057;-67
2022/06/29 07:21:03;;;;;;;3.97;3.33;;;;;;;24.34;55.48;101264.16;5027321;28;20053;-67
2022/06/29 07:23:30;;;;;;;5.75;3.20;;;;;;;24.72;54.67;101257.56;5024973;28;20042;-67
2022/06/29 07:25:57;;;;;;;9.43;3.70;;;;;;;24.57;55.07;101261.81;5036071;28;20049;-67
2022/06/29 07:28:23;;;;;;;6.10;3.88;;;;;;;24.70;54.17;101262.22;5030621;28;20127;-68
2022/06/29 07:30:50;;;;;;;6.13;3.15;;;;;;;25.57;53.09;101262.03;5023542;28;20563;-68
2022/06/29 07:33:17;;;;;;;5.43;2.97;;;;;;;25.32;51.46;101265.59;5039314;28;20468;-68
2022/06/29 07:35:44;;;;;;;7.90;3.22;;;;;;;24.99;52.39;101256.53;5045402;28;20505;-68
2022/06/29 07:38:11;;;;;;;7.18;2.95;;;;;;;24.78;52.49;101272.16;5031138;28;20066;-68
2022/06/29 07:40:38;;;;;;;7.15;3.05;;;;;;;24.49;52.56;101267.09;5025902;28;20653;-68
2022/06/29 07:43:04;;;;;;;6.90;3.25;;;;;;;24.70;52.31;101268.44;5037989;28;20044;-68
2022/06/29 07:45:31;;;;;;;4.63;3.05;;;;;;;24.44;51.41;101266.72;5045496;28;20041;-68
2022/06/29 07:47:57;;;;;;;5.53;2.70;;;;;;;24.16;52.15;101276.72;5035115;28;20068;-68
2022/06/29 07:50:23;;;;;;;4.57;2.58;;;;;;;23.92;52.22;101260.38;5034488;28;20504;-68
2022/06/29 07:52:49;;;;;;;3.85;2.60;;;;;;;23.47;52.73;101258.56;5036156;28;20067;-68
2022/06/29 07:55:17;;;;;;;3.88;2.65;;;;;;;23.52;52.69;101268.81;5042306;28;20065;-68
2022/06/29 07:57:44;;;;;;;5.35;2.80;;;;;;;23.45;53.13;101268.59;5027781;28;20095;-68
2022/06/29 08:00:12;;;;;;;3.67;2.38;;;;;;;23.31;53.08;101263.69;5042112;28;20235;-68
2022/06/29 08:02:38;;;;;;;3.67;2.25;;;;;;;23.41;52.77;101275.19;5032805;28;20057;-67
2022/06/29 08:05:05;;;;;;;2.75;2.10;;;;;;;23.47;52.45;101276.44;5025917;28;20069;-67
2022/06/29 08:07:31;;;;;;;3.00;2.15;;;;;;;23.44;52.05;101276.75;5028329;28;20044;-71
2022/06/29 08:09:58;;;;;;;5.85;2.10;;;;;;;23.44;51.61;101269.56;5037491;28;20196;-68
2022/06/29 08:12:25;;;;;;;7.20;2.38;;;;;;;23.15;51.71;101266.16;5024955;28;20046;-68
2022/06/29 08:14:52;;;;;;;4.78;2.00;;;;;;;23.13;52.53;101268.16;5024074;28;20168;-68
2022/06/29 08:17:18;;;;;;;3.60;2.13;;;;;;;23.12;52.25;101261.97;5026500;28;20076;-68
2022/06/29 08:19:45;;;;;;;3.63;1.90;;;;;;;22.95;53.19;101265.38;5023467;28;20099;-68
2022/06/29 08:22:12;;;;;;;6.95;3.05;;;;;;;23.20;53.06;101271.91;5024533;28;20425;-69
2022/06/29 08:24:38;;;;;;;3.90;2.40;;;;;;;23.36;52.97;101260.56;5027659;28;20120;-68
2022/06/29 08:27:04;;;;;;;4.22;2.33;;;;;;;23.32;54.04;101256.53;5025859;28;20095;-69
2022/06/29 08:29:32;;;;;;;4.05;2.58;;;;;;;23.62;53.67;101259.72;5023951;28;20045;-69
2022/06/29 08:31:58;;;;;;;5.78;2.50;;;;;;;23.80;52.86;101250.91;5022142;28;20096;-69
2022/06/29 08:34:25;;;;;;;7.15;3.33;;;;;;;24.04;52.89;101246.59;5044670;28;20066;-69
2022/06/29 08:36:52;;;;;;;4.25;2.30;;;;;;;24.36;52.31;101239.84;5034875;28;20418;-69
2022/06/29 08:39:18;;;;;;;5.22;2.53;;;;;;;23.87;52.44;101241.25;5024225;28;20067;-69
2022/06/29 08:41:45;;;;;;;4.20;2.60;;;;;;;24.16;51.95;101244.56;5024783;28;20041;-69
2022/06/29 08:44:12;;;;;;;18.75;2.90;;;;;;;24.72;51.51;101244.97;5024598;28;20076;-69
2022/06/29 08:46:39;;;;;;;3.65;2.47;;;;;;;24.72;50.45;101255.69;5029787;28;20126;-69
2022/06/29 08:49:05;;;;;;;9.30;2.75;;;;;;;24.31;51.37;101251.06;5043685;28;20091;-69
2022/06/29 08:51:34;;;;;;;7.38;2.90;;;;;;;24.63;49.65;101251.28;5037152;28;20057;-69
2022/06/29 08:54:02;;;;;;;8.35;2.72;;;;;;;23.97;51.14;101242.84;5027998;28;20045;-69
2022/06/29 08:56:29;;;;;;;7.55;2.95;;;;;;;24.35;51.89;101251.59;5024400;28;20449;-69
2022/06/29 08:58:55;;;;;;;15.00;3.00;;;;;;;23.99;52.81;101250.72;5024374;28;20350;-69
2022/06/29 09:01:22;;;;;;;4.22;2.58;;;;;;;23.90;51.40;101243.63;5026224;28;20045;-69
2022/06/29 09:03:50;;;;;;;8.43;3.15;;;;;;;23.89;51.41;101255.31;5025386;28;20103;-69
2022/06/29 09:06:17;;;;;;;7.15;3.03;;;;;;;23.90;51.68;101246.31;5024460;28;20053;-69
2022/06/29 09:08:43;;;;;;;3.33;2.67;;;;;;;23.77;51.91;101252.88;5025063;28;20053;-69
2022/06/29 09:11:27;;;;;;;3.67;2.78;;;;;;;23.86;51.96;101255.63;5023508;28;20041;-69
2022/06/29 09:14:13;;;;;;;5.93;2.75;;;;;;;24.34;50.80;101264.16;5006091;28;20065;-69
2022/06/29 09:16:56;;;;;;;5.85;2.80;;;;;;;24.37;50.16;101266.50;5006551;28;20061;-69
2022/06/29 09:19:27;;;;;;;7.40;3.17;;;;;;;24.82;49.26;101260.13;5024353;28;20445;-70
2022/06/29 09:21:55;;;;;;;4.75;2.92;;;;;;;25.20;47.61;101255.13;5037080;28;20050;-69
2022/06/29 09:24:24;;;;;;;5.53;2.80;;;;;;;25.20;47.69;101257.81;5023478;28;20100;-69
2022/06/29 09:26:51;;;;;;;3.75;2.83;;;;;;;25.52;46.02;101253.63;5023616;28;20091;-69
2022/06/29 09:29:22;;;;;;;12.80;3.08;;;;;;;25.31;47.90;101250.50;5028436;28;20041;-69
2022/06/29 09:32:13;;;;;;;16.63;3.97;;;;;;;25.81;47.96;101245.97;5025881;28;20071;-69
2022/06/29 09:34:43;;;;;;;4.20;2.55;;;;;;;25.29;47.37;101256.03;5023350;28;20494;-69
2022/06/29 09:37:12;;;;;;;4.45;2.33;;;;;;;25.27;44.80;101249.13;5024615;28;20041;-69
2022/06/29 09:39:40;;;;;;;4.70;2.65;;;;;;;24.11;48.16;101245.00;5023930;28;20124;-69
2022/06/29 09:42:08;;;;;;;9.50;2.78;;;;;;;24.16;48.92;101250.78;5023285;28;20497;-69
2022/06/29 09:44:35;;;;;;;9.45;3.10;;;;;;;24.39;48.52;101247.59;5024232;28;20056;-69
2022/06/29 09:47:05;;;;;;;7.38;2.78;;;;;;;24.16;48.88;101245.41;5024601;28;20045;-69
2022/06/29 09:49:33;;;;;;;7.70;2.90;;;;;;;24.76;47.80;101244.66;5023593;28;20045;-69
2022/06/29 09:52:03;;;;;;;4.55;2.75;;;;;;;24.91;47.83;101238.56;5024495;28;20045;-69
2022/06/29 09:54:33;;;;;;;3.03;2.50;;;;;;;25.12;47.14;101249.75;5025235;28;20045;-69
2022/06/29 09:57:00;;;;;;;3.67;2.67;;;;;;;24.55;48.67;101240.50;5023090;28;20395;-69
2022/06/29 10:05:01;;;;;;;7.13;3.03;;;;;;;24.77;47.81;101240.97;5024007;28;20056;-69
2022/06/29 10:07:31;;;;;;;5.07;2.65;;;;;;;25.16;47.05;101226.97;5024057;28;20234;-69
2022/06/29 10:09:58;;;;;;;5.10;2.65;;;;;;;25.13;46.57;101224.59;5023756;28;20485;-69
2022/06/29 10:15:33;;;;;;;6.88;2.55;;;;;;;25.67;46.42;101215.22;5025359;28;20130;-69
2022/06/29 10:18:07;;;;;;;3.88;2.60;;;;;;;25.70;45.70;101213.19;5023600;28;20071;-69
2022/06/29 10:20:42;;;;;;;4.45;2.42;;;;;;;25.74;45.76;101204.66;5030387;28;20098;-69
2022/06/29 10:23:49;;;;;;;4.95;2.90;;;;;;;25.76;45.59;101199.94;5028446;28;20099;-69
2022/06/29 10:26:45;;;;;;;5.32;2.67;;;;;;;25.80;45.25;101203.97;5026777;28;20049;-69
2022/06/29 10:29:45;;;;;;;5.90;2.78;;;;;;;25.70;46.51;101205.16;5020158;28;20041;-69
2022/06/29 10:32:16;;;;;;;11.57;2.70;;;;;;;25.98;45.78;101204.66;5046647;28;20045;-69
2022/06/29 10:37:32;;;;;;;7.22;2.17;;;;;;;25.56;44.85;101196.75;5027866;28;20055;-69
2022/06/29 10:40:04;;;;;;;3.53;2.40;;;;;;;25.13;47.17;101202.25;5026425;28;20072;-69
2022/06/29 10:45:19;;;;;;;3.20;2.25;;;;;;;25.40;45.89;101195.81;5027222;28;20160;-69
2022/06/29 10:47:48;;;;;;;9.25;3.20;;;;;;;25.71;46.09;101204.16;5027260;28;20049;-69
2022/06/29 10:50:25;;;;;;;5.30;2.58;;;;;;;24.90;47.67;101207.41;5026207;28;20069;-67
2022/06/29 10:52:53;;;;;;;4.72;2.45;;;;;;;25.15;46.15;101192.22;5036572;28;20482;-68
2022/06/29 10:55:22;;;;;;;3.45;2.00;;;;;;;25.27;44.82;101190.09;5036175;28;20099;-67
2022/06/29 10:57:49;;;;;;;4.32;2.28;;;;;;;24.72;45.26;101193.19;5023660;28;20041;-66
2022/06/29 11:00:17;;;;;;;3.90;2.10;;;;;;;25.06;44.50;101199.41;5026872;28;20536;-66
2022/06/29 11:02:45;;;;;;;3.05;2.00;;;;;;;24.98;44.56;101191.31;5028182;28;20045;-66
2022/06/29 11:05:12;;;;;;;3.67;1.83;;;;;;;25.19;44.53;101181.00;5022747;28;20115;-66
2022/06/29 11:13:21;;;;;;;5.53;2.20;;;;;;;24.38;47.63;101198.50;5001158;28;20052;-66
2022/06/29 11:15:50;;;;;;;5.45;2.13;;;;;;;24.36;47.57;101191.59;5027326;28;20095;-66
2022/06/29 11:18:18;;;;;;;4.60;1.95;;;;;;;24.28;47.27;101186.22;5021835;28;20096;-66
2022/06/29 11:20:48;;;;;;;4.43;2.30;;;;;;;24.51;48.08;101192.72;5024160;28;20054;-66
2022/06/29 11:23:17;;;;;;;4.18;2.08;;;;;;;24.62;47.28;101187.09;5027322;28;20490;-66
2022/06/29 11:25:47;;;;;;;8.43;2.20;;;;;;;24.70;47.82;101190.66;5026811;28;20103;-66
2022/06/29 11:28:14;;;;;;;3.25;2.10;;;;;;;24.65;48.35;101181.38;5024966;28;20052;-66
2022/06/29 11:30:40;;;;;;;7.60;2.30;;;;;;;24.76;48.96;101181.13;5029719;28;20045;-66
2022/06/29 11:33:10;;;;;;;20.73;3.53;;;;;;;24.91;49.87;101184.91;5034659;28;20045;-66
2022/06/29 11:35:37;;;;;;;9.85;2.63;;;;;;;24.99;49.03;101184.94;5024642;28;20104;-66
2022/06/29 11:38:05;;;;;;;6.43;2.40;;;;;;;25.10;47.61;101183.81;5025602;28;20037;-66
2022/06/29 11:40:35;;;;;;;13.27;3.22;;;;;;;25.05;48.53;101178.13;5028010;28;20171;-66
2022/06/29 11:43:07;;;;;;;6.45;2.78;;;;;;;25.42;46.80;101169.66;5026104;28;20076;-66
2022/06/29 11:45:37;;;;;;;;;;;;;;;25.16;47.09;101175.97;5025682;28;20053;-66
2022/06/29 11:48:11;;;;;;;11.95;3.05;;;;;;;25.31;46.08;101159.25;5026641;28;19920;-66